createdAt,value
2023-02-02T00:02:02.293Z,2.50
2023-02-02T00:04:34.289Z,2.20
2023-02-02T00:07:01.763Z,2.00
2023-02-02T00:09:30.900Z,2.60
2023-02-02T00:11:59.111Z,2.00
2023-02-02T00:14:26.013Z,2.60
2023-02-02T00:16:54.512Z,2.50
2023-02-02T00:19:30.322Z,1.80
2023-02-02T00:21:57.261Z,2.90
2023-02-02T00:24:24.431Z,2.90
2023-02-02T00:26:53.818Z,2.10
2023-02-02T00:29:26.728Z,2.70
2023-02-02T00:31:53.992Z,2.20
2023-02-02T00:34:21.906Z,2.10
2023-02-02T00:36:49.747Z,2.30
2023-02-02T00:39:19.096Z,2.10
2023-02-02T00:41:46.166Z,2.50
2023-02-02T00:44:31.679Z,2.50
2023-02-02T00:46:58.647Z,2.30
2023-02-02T00:49:25.398Z,2.70
2023-02-02T00:51:52.281Z,2.30
2023-02-02T00:54:19.039Z,2.40
2023-02-02T00:56:45.944Z,3.10
2023-02-02T00:59:12.755Z,2.60
2023-02-02T01:01:39.731Z,2.40
2023-02-02T01:04:06.570Z,2.60
2023-02-02T01:06:33.437Z,3.00
2023-02-02T01:09:00.020Z,2.80
2023-02-02T01:11:27.123Z,2.80
2023-02-02T01:13:53.988Z,2.00
2023-02-02T01:16:22.488Z,2.00
2023-02-02T01:18:50.870Z,2.10
2023-02-02T01:21:18.010Z,2.80
2023-02-02T01:23:44.674Z,2.20
2023-02-02T01:26:12.642Z,2.20
2023-02-02T01:28:39.953Z,2.60
2023-02-02T01:31:09.832Z,2.50
2023-02-02T01:33:37.018Z,2.60
2023-02-02T01:36:10.289Z,2.80
2023-02-02T01:38:37.145Z,2.60
2023-02-02T01:41:04.635Z,2.60
2023-02-02T01:43:52.964Z,2.50
2023-02-02T01:46:24.899Z,2.90
2023-02-02T01:49:03.618Z,2.40
2023-02-02T01:51:46.240Z,2.50
2023-02-02T01:54:17.790Z,2.60
2023-02-02T01:56:51.473Z,2.70
2023-02-02T01:59:18.640Z,3.60
2023-02-02T02:01:47.785Z,3.90
2023-02-02T02:04:15.288Z,2.50
2023-02-02T02:06:42.634Z,2.50
2023-02-02T02:09:09.710Z,2.50
2023-02-02T02:11:37.115Z,2.60
2023-02-02T02:14:27.822Z,2.70
2023-02-02T02:17:12.373Z,2.90
2023-02-02T02:20:12.456Z,2.20
2023-02-02T02:23:34.416Z,2.00
2023-02-02T02:26:35.032Z,2.60
2023-02-02T02:29:01.641Z,2.90
2023-02-02T02:32:05.890Z,3.10
2023-02-02T02:35:10.114Z,2.50
2023-02-02T02:38:09.568Z,2.80
2023-02-02T02:40:42.262Z,2.50
2023-02-02T02:43:44.073Z,2.50
2023-02-02T02:46:12.410Z,2.60
2023-02-02T02:48:39.349Z,2.30
2023-02-02T02:51:43.660Z,2.10
2023-02-02T02:54:13.608Z,3.80
2023-02-02T02:56:58.362Z,2.40
2023-02-02T02:59:33.292Z,2.70
2023-02-02T03:02:29.832Z,3.20
2023-02-02T03:05:24.461Z,2.20
2023-02-02T03:08:00.113Z,1.90
2023-02-02T03:10:29.831Z,2.40
2023-02-02T03:12:57.607Z,2.50
2023-02-02T03:15:24.603Z,2.40
2023-02-02T03:17:53.628Z,2.50
2023-02-02T03:20:21.204Z,3.00
2023-02-02T03:22:47.923Z,2.30
2023-02-02T03:25:15.944Z,2.40
2023-02-02T03:27:42.669Z,2.80
2023-02-02T03:30:13.357Z,2.50
2023-02-02T03:32:40.564Z,2.30
2023-02-02T03:35:08.427Z,2.50
2023-02-02T03:37:35.287Z,2.90
2023-02-02T03:40:01.993Z,2.40
2023-02-02T03:42:28.790Z,2.60
2023-02-02T03:44:55.420Z,2.60
2023-02-02T03:47:21.802Z,3.20
2023-02-02T03:49:48.449Z,2.20
2023-02-02T03:52:15.268Z,2.30
2023-02-02T03:54:42.018Z,2.50
2023-02-02T03:57:08.828Z,2.20
2023-02-02T03:59:35.714Z,2.00
2023-02-02T04:02:02.511Z,2.50
2023-02-02T04:04:29.498Z,2.70
2023-02-02T04:06:56.247Z,2.60
2023-02-02T04:09:23.005Z,3.00
2023-02-02T04:11:49.914Z,3.10
2023-02-02T04:14:16.600Z,3.10
2023-02-02T04:16:43.395Z,3.50
2023-02-02T04:19:12.690Z,2.30
2023-02-02T04:21:40.563Z,2.70
2023-02-02T04:24:10.291Z,2.00
2023-02-02T04:26:37.309Z,2.30
2023-02-02T04:29:04.029Z,2.90
2023-02-02T04:31:31.927Z,2.80
2023-02-02T04:33:58.879Z,2.90
2023-02-02T04:36:25.918Z,2.40
2023-02-02T04:38:53.696Z,2.80
2023-02-02T04:41:21.482Z,2.20
2023-02-02T04:43:48.579Z,2.40
2023-02-02T04:46:15.702Z,2.30
2023-02-02T04:48:42.558Z,2.60
2023-02-02T04:51:12.262Z,3.10
2023-02-02T04:53:40.248Z,3.10
2023-02-02T04:56:09.431Z,2.60
2023-02-02T04:58:36.291Z,2.50
2023-02-02T05:01:12.111Z,3.20
2023-02-02T05:03:39.057Z,3.50
2023-02-02T05:06:06.954Z,3.50
2023-02-02T05:08:34.262Z,2.50
2023-02-02T05:11:00.992Z,3.60
2023-02-02T05:13:27.774Z,2.30
2023-02-02T05:15:55.283Z,2.90
2023-02-02T05:18:22.706Z,3.30
2023-02-02T05:20:49.477Z,2.70
2023-02-02T05:23:16.374Z,3.60
2023-02-02T05:25:42.983Z,2.70
2023-02-02T05:28:09.681Z,3.20
2023-02-02T05:30:39.239Z,2.60
2023-02-02T05:33:06.114Z,3.00
2023-02-02T05:35:33.259Z,3.50
2023-02-02T05:39:47.129Z,2.70
2023-02-02T05:42:13.769Z,2.50
2023-02-02T05:44:40.316Z,2.40
2023-02-02T05:47:07.210Z,3.20
2023-02-02T05:49:33.984Z,2.70
2023-02-02T05:52:00.806Z,3.30
2023-02-02T05:54:27.830Z,2.90
2023-02-02T05:56:55.840Z,3.70
2023-02-02T05:59:23.188Z,3.70
2023-02-02T06:01:50.075Z,2.80
2023-02-02T06:04:17.082Z,3.20
2023-02-02T06:06:44.169Z,3.10
2023-02-02T06:09:11.216Z,3.50
2023-02-02T06:11:39.581Z,2.30
2023-02-02T06:14:06.538Z,3.70
2023-02-02T06:16:33.361Z,2.80
2023-02-02T06:18:59.988Z,2.90
2023-02-02T06:21:31.011Z,3.80
2023-02-02T06:23:59.131Z,3.00
2023-02-02T06:26:26.426Z,3.00
2023-02-02T06:28:54.684Z,3.20
2023-02-02T06:31:22.210Z,3.20
2023-02-02T06:33:54.064Z,3.40
2023-02-02T06:36:21.726Z,3.50
2023-02-02T06:38:50.359Z,2.50
2023-02-02T06:41:18.033Z,3.50
2023-02-02T06:43:44.821Z,3.60
2023-02-02T06:46:12.162Z,3.00
2023-02-02T06:48:39.320Z,2.70
2023-02-02T06:51:06.120Z,3.20
2023-02-02T06:53:33.647Z,3.00
2023-02-02T06:56:07.492Z,3.60
2023-02-02T06:58:34.592Z,3.60
2023-02-02T07:01:09.232Z,2.90
2023-02-02T07:03:36.773Z,2.90
2023-02-02T07:06:24.378Z,3.10
2023-02-02T07:09:01.856Z,2.90
2023-02-02T07:11:32.197Z,3.20
2023-02-02T07:13:59.948Z,2.70
2023-02-02T07:16:26.599Z,2.70
2023-02-02T07:18:53.379Z,2.90
2023-02-02T07:21:25.518Z,2.90
2023-02-02T07:23:52.047Z,3.60
2023-02-02T07:26:19.631Z,3.10
2023-02-02T07:28:47.469Z,3.40
2023-02-02T07:31:25.755Z,2.70
2023-02-02T07:33:53.676Z,2.30
2023-02-02T07:36:23.491Z,3.00
2023-02-02T07:38:54.494Z,2.90
2023-02-02T07:41:21.886Z,3.60
2023-02-02T07:43:49.239Z,3.40
2023-02-02T07:46:17.661Z,2.70
2023-02-02T07:48:44.389Z,2.90
2023-02-02T07:51:14.179Z,3.10
2023-02-02T07:53:44.931Z,3.10
2023-02-02T07:56:15.757Z,2.90
2023-02-02T07:58:43.643Z,4.10
2023-02-02T08:01:13.101Z,3.20
2023-02-02T08:03:40.573Z,3.40
2023-02-02T08:06:15.530Z,2.60
2023-02-02T08:08:42.421Z,3.00
2023-02-02T08:11:11.163Z,2.90
2023-02-02T08:13:38.553Z,3.30
2023-02-02T08:16:07.131Z,3.50
2023-02-02T08:18:35.050Z,3.30
2023-02-02T08:21:03.313Z,3.40
2023-02-02T08:23:31.256Z,2.90
2023-02-02T08:26:10.423Z,3.50
2023-02-02T08:28:37.973Z,3.30
2023-02-02T08:31:14.321Z,3.00
2023-02-02T08:33:41.460Z,2.90
2023-02-02T08:36:16.995Z,3.00
2023-02-02T08:38:44.020Z,3.10
2023-02-02T08:41:13.393Z,4.10
2023-02-02T08:43:41.035Z,3.50
2023-02-02T08:46:11.407Z,3.90
2023-02-02T08:48:38.393Z,3.40
2023-02-02T08:51:07.029Z,3.40
2023-02-02T08:53:34.110Z,3.10
2023-02-02T08:56:06.742Z,3.50
2023-02-02T08:58:34.339Z,3.40
2023-02-02T09:01:11.345Z,2.80
2023-02-02T09:03:40.281Z,3.30
2023-02-02T09:06:08.991Z,2.70
2023-02-02T09:08:36.169Z,2.50
2023-02-02T09:11:09.691Z,3.00
2023-02-02T09:13:38.289Z,3.20
2023-02-02T09:16:07.754Z,3.20
2023-02-02T09:18:34.831Z,3.10
2023-02-02T09:21:03.759Z,2.80
2023-02-02T09:23:32.727Z,3.20
2023-02-02T09:26:12.879Z,3.20
2023-02-02T09:28:41.241Z,2.10
2023-02-02T09:31:08.161Z,2.80
2023-02-02T09:33:36.069Z,2.10
2023-02-02T09:36:29.124Z,2.40
2023-02-02T09:38:55.885Z,2.60
2023-02-02T09:41:38.119Z,2.80
2023-02-02T09:44:33.080Z,2.30
2023-02-02T09:46:59.927Z,2.40
2023-02-02T09:49:42.241Z,2.30
2023-02-02T09:52:15.799Z,2.30
2023-02-02T09:54:48.464Z,1.80
2023-02-02T09:57:37.700Z,2.50
2023-02-02T10:00:07.027Z,2.20
2023-02-02T10:02:39.703Z,2.80
2023-02-02T10:05:19.863Z,1.90
2023-02-02T10:07:52.020Z,2.00
2023-02-02T10:10:26.185Z,2.00
2023-02-02T10:12:59.743Z,2.50
2023-02-02T10:16:01.597Z,1.60
2023-02-02T10:18:37.838Z,2.30
2023-02-02T10:21:12.681Z,2.00
2023-02-02T10:23:44.983Z,1.90
2023-02-02T10:26:22.525Z,2.40
2023-02-02T10:29:11.211Z,1.70
2023-02-02T10:32:15.568Z,1.80
2023-02-02T10:35:03.451Z,2.00
2023-02-02T10:37:54.122Z,2.70
2023-02-02T10:40:56.741Z,2.30
2023-02-02T10:43:51.587Z,1.80
2023-02-02T10:46:36.985Z,1.50
2023-02-02T10:49:40.324Z,2.10
2023-02-02T10:52:17.693Z,1.80
2023-02-02T10:54:59.202Z,2.10
2023-02-02T10:57:51.352Z,2.30
2023-02-02T11:00:37.228Z,2.30
2023-02-02T11:03:07.084Z,1.80
2023-02-02T11:05:52.646Z,2.30
2023-02-02T11:08:39.659Z,1.60
2023-02-02T11:11:17.119Z,2.00
2023-02-02T11:13:59.532Z,2.30
2023-02-02T11:16:42.176Z,1.80
2023-02-02T11:19:21.717Z,2.00
2023-02-02T11:21:56.962Z,2.00
2023-02-02T11:24:25.089Z,1.80
2023-02-02T11:27:02.652Z,2.00
2023-02-02T11:29:51.701Z,2.20
2023-02-02T11:32:25.342Z,2.60
2023-02-02T11:35:29.645Z,2.00
2023-02-02T11:38:17.910Z,2.20
2023-02-02T11:40:46.110Z,2.40
2023-02-02T11:43:20.813Z,1.90
2023-02-02T11:45:55.028Z,2.50
2023-02-02T11:48:29.997Z,3.00
2023-02-02T11:50:59.281Z,2.10
2023-02-02T11:53:35.639Z,2.00
2023-02-02T11:56:09.897Z,2.70
2023-02-02T11:58:48.143Z,2.10
2023-02-02T12:01:30.874Z,2.40
2023-02-02T12:03:59.953Z,2.30
2023-02-02T12:06:33.498Z,1.80
2023-02-02T12:09:09.814Z,2.30
2023-02-02T12:11:48.386Z,2.40
2023-02-02T12:14:28.721Z,2.50
2023-02-02T12:17:15.043Z,2.50
2023-02-02T12:19:50.831Z,2.00
2023-02-02T12:22:35.848Z,2.00
2023-02-02T12:25:34.539Z,2.30
2023-02-02T12:28:23.315Z,2.20
2023-02-02T12:30:50.410Z,2.30
2023-02-02T12:33:38.051Z,2.40
2023-02-02T12:36:46.058Z,2.10
2023-02-02T12:39:34.543Z,2.10
2023-02-02T12:42:07.640Z,2.10
2023-02-02T12:44:51.082Z,2.00
2023-02-02T12:47:39.034Z,2.50
2023-02-02T12:50:05.853Z,1.70
2023-02-02T12:52:35.408Z,2.50
2023-02-02T12:55:16.007Z,2.30
2023-02-02T12:58:09.461Z,1.90
2023-02-02T13:00:39.624Z,2.40
2023-02-02T13:03:22.754Z,2.20
2023-02-02T13:06:11.472Z,2.50
2023-02-02T13:08:57.299Z,2.40
2023-02-02T13:11:44.920Z,2.00
2023-02-02T13:14:21.957Z,2.00
2023-02-02T13:16:53.384Z,2.50
2023-02-02T13:19:36.547Z,2.00
2023-02-02T13:22:10.426Z,2.20
2023-02-02T13:24:41.202Z,2.40
2023-02-02T13:27:14.053Z,2.30
2023-02-02T13:29:58.267Z,2.60
2023-02-02T13:32:30.803Z,2.10
2023-02-02T13:35:03.665Z,2.20
2023-02-02T13:37:45.010Z,1.90
2023-02-02T13:40:20.867Z,2.10
2023-02-02T13:43:05.452Z,2.30
2023-02-02T13:45:35.405Z,2.20
2023-02-02T13:48:28.944Z,2.10
2023-02-02T13:51:20.049Z,2.20
2023-02-02T13:54:11.529Z,1.90
2023-02-02T13:56:44.088Z,2.30
2023-02-02T13:59:27.936Z,2.10
2023-02-02T14:01:59.193Z,2.60
2023-02-02T14:04:29.945Z,2.70
2023-02-02T14:07:07.509Z,2.50
2023-02-02T14:09:37.846Z,3.80
2023-02-02T14:12:11.709Z,3.00
2023-02-02T14:14:45.579Z,2.40
2023-02-02T14:17:17.240Z,2.70
2023-02-02T14:19:43.839Z,2.80
2023-02-02T14:22:10.456Z,3.10
2023-02-02T14:24:37.081Z,2.90
2023-02-02T14:27:09.948Z,2.80
2023-02-02T14:29:39.554Z,2.90
2023-02-02T14:32:08.960Z,2.40
2023-02-02T14:34:45.282Z,2.80
2023-02-02T14:37:24.554Z,2.80
2023-02-02T14:40:26.361Z,2.80
2023-02-02T14:43:45.195Z,2.50
2023-02-02T14:46:14.997Z,2.50
2023-02-02T14:48:49.761Z,3.10
2023-02-02T14:51:19.595Z,2.70
2023-02-02T14:54:01.138Z,2.90
2023-02-02T14:56:51.548Z,3.00
2023-02-02T14:59:23.664Z,2.20
2023-02-02T15:02:22.442Z,3.50
2023-02-02T15:04:49.405Z,2.90
2023-02-02T15:07:37.798Z,3.10
2023-02-02T15:10:05.415Z,2.80
2023-02-02T15:12:45.086Z,2.90
2023-02-02T15:15:29.340Z,2.90
2023-02-02T15:18:00.964Z,2.70
2023-02-02T15:20:33.991Z,3.00
2023-02-02T15:23:04.393Z,3.30
2023-02-02T15:25:53.923Z,2.50
2023-02-02T15:28:38.066Z,2.60
2023-02-02T15:31:22.909Z,2.50
2023-02-02T15:33:57.364Z,2.70
2023-02-02T15:36:27.749Z,2.90
2023-02-02T15:38:58.506Z,2.40
2023-02-02T15:41:38.171Z,2.80
2023-02-02T15:44:26.631Z,2.30
2023-02-02T15:46:54.818Z,2.40
2023-02-02T15:49:35.102Z,1.90
2023-02-02T15:52:17.035Z,2.50
2023-02-02T15:54:53.265Z,2.70
2023-02-02T15:57:34.840Z,2.80
2023-02-02T16:00:23.344Z,2.60
2023-02-02T16:03:14.094Z,2.50
2023-02-02T16:05:45.661Z,2.40
2023-02-02T16:08:19.072Z,2.40
2023-02-02T16:10:48.988Z,2.70
2023-02-02T16:13:27.681Z,2.90
2023-02-02T16:15:59.706Z,2.70
2023-02-02T16:18:26.609Z,2.20
2023-02-02T16:20:54.564Z,2.70
2023-02-02T16:23:30.423Z,2.30
2023-02-02T16:25:59.965Z,2.90
2023-02-02T16:28:26.939Z,2.40
2023-02-02T16:30:53.794Z,2.50
2023-02-02T16:33:40.848Z,2.50
2023-02-02T16:36:25.757Z,2.30
2023-02-02T16:38:54.553Z,2.40
2023-02-02T16:41:32.962Z,2.30
2023-02-02T16:44:36.336Z,2.50
2023-02-02T16:47:04.654Z,2.40
2023-02-02T16:49:31.496Z,2.30
2023-02-02T16:52:19.899Z,2.60
2023-02-02T16:54:57.146Z,2.50
2023-02-02T16:57:34.051Z,2.60
2023-02-02T17:00:04.974Z,2.50
2023-02-02T17:02:35.172Z,2.80
2023-02-02T17:05:07.795Z,2.80
2023-02-02T17:07:38.174Z,3.50
2023-02-02T17:10:20.336Z,3.00
2023-02-02T17:12:47.273Z,3.00
2023-02-02T17:15:16.999Z,2.50
2023-02-02T17:17:48.494Z,2.80
2023-02-02T17:20:16.799Z,3.10
2023-02-02T17:22:46.665Z,2.60
2023-02-02T17:25:37.173Z,3.30
2023-02-02T17:28:10.082Z,2.70
2023-02-02T17:30:37.792Z,2.40
2023-02-02T17:33:05.513Z,2.30
2023-02-02T17:35:47.280Z,2.30
2023-02-02T17:38:19.732Z,2.10
2023-02-02T17:40:46.565Z,2.40
2023-02-02T17:43:13.618Z,2.50
2023-02-02T17:45:40.860Z,2.60
2023-02-02T17:48:11.284Z,2.80
2023-02-02T17:50:38.904Z,2.60
2023-02-02T17:53:05.677Z,3.10
2023-02-02T17:55:41.961Z,3.60
2023-02-02T17:58:10.574Z,3.80
2023-02-02T18:00:39.096Z,3.50
2023-02-02T18:03:28.213Z,3.30
2023-02-02T18:05:55.910Z,3.60
2023-02-02T18:08:22.742Z,3.20
2023-02-02T18:10:49.720Z,2.30
2023-02-02T18:13:22.080Z,2.90
2023-02-02T18:15:52.186Z,2.30
2023-02-02T18:18:18.961Z,3.00
2023-02-02T18:20:48.169Z,2.50
2023-02-02T18:23:15.891Z,2.50
2023-02-02T18:25:43.266Z,2.50
2023-02-02T18:28:10.714Z,2.30
2023-02-02T18:30:41.837Z,2.60
2023-02-02T18:33:10.054Z,2.40
2023-02-02T18:35:46.149Z,2.30
2023-02-02T18:38:14.638Z,2.40
2023-02-02T18:40:41.508Z,2.40
2023-02-02T18:43:10.071Z,2.30
2023-02-02T18:45:37.307Z,2.30
2023-02-02T18:48:04.293Z,2.70
2023-02-02T18:50:31.689Z,2.50
2023-02-02T18:52:58.780Z,2.60
2023-02-02T18:55:26.701Z,2.40
2023-02-02T18:57:53.959Z,2.50
2023-02-02T19:00:22.129Z,2.50
2023-02-02T19:02:49.073Z,2.50
2023-02-02T19:05:34.903Z,2.70
2023-02-02T19:08:04.124Z,2.70
2023-02-02T19:10:31.386Z,2.40
2023-02-02T19:13:19.321Z,2.30
2023-02-02T19:15:48.660Z,2.30
2023-02-02T19:18:17.478Z,2.20
2023-02-02T19:20:44.785Z,2.20
2023-02-02T19:23:12.827Z,2.50
2023-02-02T19:25:46.388Z,2.20
2023-02-02T19:28:33.934Z,2.20
2023-02-02T19:31:02.335Z,2.60
2023-02-02T19:33:46.151Z,2.30
2023-02-02T19:36:24.467Z,2.40
2023-02-02T19:39:14.788Z,2.30
2023-02-02T19:41:43.164Z,2.20
2023-02-02T19:44:20.067Z,2.40
2023-02-02T19:46:50.526Z,2.00
2023-02-02T19:49:20.635Z,2.40
2023-02-02T19:51:55.655Z,2.30
2023-02-02T19:54:31.243Z,2.00
2023-02-02T19:57:00.558Z,3.00
2023-02-02T19:59:33.778Z,2.10
2023-02-02T20:02:26.982Z,2.00
2023-02-02T20:05:03.651Z,2.20
2023-02-02T20:07:31.001Z,1.80
2023-02-02T20:10:16.097Z,1.90
2023-02-02T20:12:43.004Z,2.00
2023-02-02T20:15:28.428Z,2.00
2023-02-02T20:17:58.203Z,1.80
2023-02-02T20:20:29.025Z,2.00
2023-02-02T20:22:57.505Z,1.90
2023-02-02T20:25:24.282Z,1.90
2023-02-02T20:27:54.313Z,2.20
2023-02-02T20:30:30.883Z,1.80
2023-02-02T20:32:59.869Z,2.00
2023-02-02T20:35:37.032Z,2.40
2023-02-02T20:38:24.712Z,1.50
2023-02-02T20:40:52.195Z,2.10
2023-02-02T20:43:19.334Z,2.00
2023-02-02T20:45:46.243Z,2.00
2023-02-02T20:48:14.388Z,1.90
2023-02-02T20:50:41.532Z,2.00
2023-02-02T20:53:08.614Z,2.50
2023-02-02T20:55:36.967Z,2.20
2023-02-02T20:58:04.790Z,2.70
2023-02-02T21:00:31.949Z,2.70
2023-02-02T21:02:58.698Z,2.70
2023-02-02T21:05:25.391Z,2.70
2023-02-02T21:07:55.122Z,3.00
2023-02-02T21:10:26.242Z,2.80
2023-02-02T21:12:53.311Z,3.90
2023-02-02T21:15:20.160Z,3.50
2023-02-02T21:17:47.037Z,3.60
2023-02-02T21:20:15.067Z,3.20
2023-02-02T21:22:42.080Z,3.30
2023-02-02T21:25:09.598Z,2.80
2023-02-02T21:27:37.584Z,3.60
2023-02-02T21:30:05.048Z,3.40
2023-02-02T21:32:33.610Z,3.30
2023-02-02T21:35:00.471Z,3.30
2023-02-02T21:37:27.467Z,3.00
2023-02-02T21:39:59.660Z,3.10
2023-02-02T21:42:28.635Z,3.10
2023-02-02T21:45:07.620Z,2.90
2023-02-02T21:47:37.207Z,2.80
2023-02-02T21:50:19.422Z,2.80
2023-02-02T21:52:46.805Z,2.60
2023-02-02T21:55:32.533Z,2.80
2023-02-02T21:58:01.723Z,2.90
2023-02-02T22:00:32.782Z,3.00
2023-02-02T22:03:02.778Z,3.40
2023-02-02T22:05:35.582Z,3.30
2023-02-02T22:08:18.373Z,3.60
2023-02-02T22:10:47.395Z,3.70
2023-02-02T22:13:17.236Z,3.80
2023-02-02T22:15:47.489Z,4.00
2023-02-02T22:18:18.755Z,4.20
2023-02-02T22:20:47.129Z,3.40
2023-02-02T22:23:22.409Z,4.20
2023-02-02T22:25:52.908Z,4.40
2023-02-02T22:28:26.061Z,4.30
2023-02-02T22:30:54.794Z,4.60
2023-02-02T22:33:22.717Z,4.50
2023-02-02T22:35:49.748Z,4.60
2023-02-02T22:38:21.932Z,5.40
2023-02-02T22:40:49.782Z,5.10
2023-02-02T22:43:17.471Z,5.30
2023-02-02T22:45:45.002Z,5.30
2023-02-02T22:48:13.509Z,5.70
2023-02-02T22:50:41.130Z,5.80
2023-02-02T22:53:08.238Z,5.60
2023-02-02T22:55:34.799Z,6.20
2023-02-02T22:58:01.601Z,6.20
2023-02-02T23:00:30.986Z,6.30
2023-02-02T23:02:58.016Z,6.40
2023-02-02T23:05:26.409Z,6.30
2023-02-02T23:07:54.175Z,6.70
2023-02-02T23:10:24.195Z,6.60
2023-02-02T23:12:53.918Z,6.70
2023-02-02T23:15:21.251Z,6.80
2023-02-02T23:17:48.234Z,6.80
2023-02-02T23:20:15.412Z,7.40
2023-02-02T23:22:42.522Z,6.60
2023-02-02T23:25:10.517Z,6.70
2023-02-02T23:27:37.701Z,7.90
2023-02-02T23:30:05.866Z,8.10
2023-02-02T23:32:33.083Z,8.50
2023-02-02T23:34:59.879Z,8.10
2023-02-02T23:37:26.632Z,8.20
2023-02-02T23:39:53.552Z,8.30
2023-02-02T23:42:20.676Z,8.40
2023-02-02T23:44:48.013Z,7.40
2023-02-02T23:47:15.017Z,8.10
2023-02-02T23:49:41.798Z,8.40
2023-02-02T23:52:08.858Z,8.90
2023-02-02T23:54:36.387Z,9.40
2023-02-02T23:57:03.735Z,10.30
2023-02-02T23:59:30.942Z,10.20
